Time;durP1;ratioP1;P1;durP2;ratioP2;P2;SDS_P1;SDS_P2;PMS_P1;PMS_P2;Temp;Humidity;BMP_temperature;BMP_pressure;BME280_temperature;BME280_humidity;BME280_pressure;Samples;Min_cycle;Max_cycle;Signal;HPM_P1;HPM_P2
2023/12/05 00:02:13;;;;;;;5.10;2.30;;;;;;;10.80;30.55;101371.86;107550;1251;63672;-57
2023/12/05 00:04:42;;;;;;;5.90;1.80;;;;;;;10.82;30.48;101371.20;105399;1255;60347;-62
2023/12/05 00:07:10;;;;;;;8.90;2.50;;;;;;;10.90;30.50;101367.66;105491;1251;60530;-62
2023/12/05 00:09:38;;;;;;;7.60;2.60;;;;;;;10.98;30.50;101365.94;105360;1251;63692;-60
2023/12/05 00:12:06;;;;;;;7.80;2.30;;;;;;;11.08;30.37;101370.17;105394;1256;60556;-60
2023/12/05 00:14:34;;;;;;;7.80;3.20;;;;;;;11.20;30.30;101374.83;105950;1255;64666;-58
2023/12/05 00:17:02;;;;;;;10.30;2.70;;;;;;;11.29;30.26;101376.85;105500;1257;60433;-60
2023/12/05 00:19:29;;;;;;;7.40;2.40;;;;;;;11.36;30.16;101381.52;105542;1251;60380;-58
2023/12/05 00:21:58;;;;;;;11.80;2.80;;;;;;;11.36;30.07;101378.20;105569;1255;64979;-59
2023/12/05 00:24:25;;;;;;;9.70;3.40;;;;;;;11.34;30.00;101378.60;105463;1256;61385;-60
2023/12/05 00:26:53;;;;;;;7.00;2.50;;;;;;;11.31;30.12;101382.31;105473;1257;62439;-59
2023/12/05 00:29:21;;;;;;;6.80;2.80;;;;;;;11.25;29.98;101381.20;105677;1254;61647;-60
2023/12/05 00:31:48;;;;;;;6.70;2.20;;;;;;;11.15;29.94;101391.48;105508;1255;60552;-59
2023/12/05 00:34:16;;;;;;;7.70;3.50;;;;;;;11.04;30.12;101398.38;105682;1251;63661;-59
2023/12/05 00:36:44;;;;;;;7.40;3.00;;;;;;;10.93;30.23;101404.03;105476;1257;60492;-60
2023/12/05 00:39:11;;;;;;;7.50;2.80;;;;;;;10.84;30.37;101407.39;105752;1251;63763;-57
2023/12/05 00:41:39;;;;;;;8.40;3.10;;;;;;;10.78;30.35;101403.58;106688;1251;60559;-57
2023/12/05 00:44:07;;;;;;;7.40;3.00;;;;;;;10.72;30.42;101402.94;105249;1251;60367;-56
2023/12/05 00:46:35;;;;;;;7.70;3.10;;;;;;;10.67;30.45;101401.27;106169;1251;65590;-58
2023/12/05 00:49:02;;;;;;;8.80;2.90;;;;;;;10.64;30.53;101399.40;106065;1256;60552;-59
2023/12/05 00:51:30;;;;;;;7.10;3.20;;;;;;;10.59;30.62;101400.73;105398;1256;62482;-61
2023/12/05 00:53:58;;;;;;;7.20;3.30;;;;;;;10.54;30.66;101402.63;105451;1257;60482;-60
2023/12/05 00:56:26;;;;;;;8.10;3.40;;;;;;;10.49;30.74;101404.85;105543;1256;60302;-59
2023/12/05 00:58:53;;;;;;;11.40;3.90;;;;;;;10.45;30.71;101405.48;105437;1250;64954;-60
2023/12/05 01:01:21;;;;;;;7.50;2.80;;;;;;;10.37;30.64;101406.68;105581;1251;61329;-60
2023/12/05 01:03:51;;;;;;;8.40;3.40;;;;;;;10.31;30.75;101405.62;105506;1251;62486;-60
2023/12/05 01:06:19;;;;;;;6.50;1.80;;;;;;;10.25;30.75;101410.55;105761;1251;60335;-60
2023/12/05 01:08:47;;;;;;;7.90;3.30;;;;;;;10.16;30.89;101411.09;106595;1254;60428;-60
2023/12/05 01:11:16;;;;;;;4.70;1.70;;;;;;;10.16;30.81;101415.54;105584;1251;64942;-62
2023/12/05 01:13:43;;;;;;;5.90;2.00;;;;;;;10.19;30.77;101420.20;105763;1257;60364;-63
2023/12/05 01:16:11;;;;;;;6.30;1.90;;;;;;;10.22;30.73;101423.88;105517;1251;63722;-67
2023/12/05 01:18:38;;;;;;;8.80;2.70;;;;;;;10.28;30.65;101418.98;106389;1251;60364;-70
2023/12/05 01:21:06;;;;;;;7.60;2.70;;;;;;;10.28;30.53;101423.55;106793;1256;60534;-70
2023/12/05 01:23:34;;;;;;;12.50;3.70;;;;;;;10.22;30.63;101425.66;105579;1251;63608;-71
2023/12/05 01:26:02;;;;;;;8.70;3.40;;;;;;;10.14;30.68;101424.73;105481;1251;61437;-71
2023/12/05 01:28:30;;;;;;;8.20;2.40;;;;;;;10.08;30.67;101429.87;105356;1251;64168;-66
2023/12/05 01:30:58;;;;;;;8.70;3.50;;;;;;;9.99;30.66;101432.48;105431;1256;61220;-68
2023/12/05 01:33:25;;;;;;;12.80;5.10;;;;;;;9.90;30.60;101436.17;105246;1251;60654;-66
2023/12/05 01:35:53;;;;;;;11.00;3.80;;;;;;;9.78;30.55;101436.00;105616;1251;63754;-66
2023/12/05 01:38:21;;;;;;;9.50;3.80;;;;;;;9.72;30.74;101440.98;105444;1256;60380;-65
2023/12/05 01:40:48;;;;;;;9.10;5.10;;;;;;;9.65;30.78;101440.82;105419;1251;64201;-66
2023/12/05 01:43:16;;;;;;;10.60;4.00;;;;;;;9.60;30.82;101438.33;105429;1254;60552;-68
2023/12/05 01:45:44;;;;;;;10.20;4.70;;;;;;;9.55;30.89;101433.91;105571;1251;60368;-69
2023/12/05 01:48:12;;;;;;;9.70;4.00;;;;;;;9.46;30.89;101432.63;105490;1251;63680;-67
2023/12/05 01:50:39;;;;;;;12.80;3.70;;;;;;;9.37;31.01;101426.89;105523;1257;60505;-67
2023/12/05 01:53:07;;;;;;;15.40;4.40;;;;;;;9.31;31.09;101426.19;105352;1251;63675;-68
2023/12/05 01:55:35;;;;;;;8.80;3.30;;;;;;;9.26;30.96;101422.80;105508;1251;60629;-69
2023/12/05 01:58:04;;;;;;;11.30;4.40;;;;;;;9.19;31.04;101422.50;105388;1256;60524;-66
2023/12/05 02:00:31;;;;;;;12.30;4.10;;;;;;;9.12;31.03;101416.27;106031;1252;64947;-69
2023/12/05 02:02:59;;;;;;;9.40;3.50;;;;;;;9.07;31.16;101414.41;106362;1254;60440;-70
2023/12/05 02:05:27;;;;;;;8.40;3.60;;;;;;;9.12;31.20;101410.45;105365;1256;63735;-68
2023/12/05 02:07:55;;;;;;;14.40;4.70;;;;;;;9.21;31.06;101410.46;105360;1256;60322;-68
2023/12/05 02:10:23;;;;;;;8.60;3.30;;;;;;;9.30;30.96;101407.00;105396;1251;60616;-67
2023/12/05 02:12:51;;;;;;;10.20;2.80;;;;;;;9.36;30.75;101408.89;105394;1251;64988;-67
2023/12/05 02:15:19;;;;;;;9.30;3.90;;;;;;;9.37;30.73;101406.20;105507;1257;60393;-70
2023/12/05 02:17:58;;;;;;;9.80;3.60;;;;;;;9.38;30.73;101406.70;105528;1251;64174;-70
2023/12/05 02:20:34;;;;;;;8.70;2.80;;;;;;;9.34;30.78;101404.28;105607;1256;60552;-67
2023/12/05 02:23:02;;;;;;;11.30;4.50;;;;;;;9.29;30.69;101409.27;105316;1251;60540;-66
2023/12/05 02:25:42;;;;;;;10.20;2.80;;;;;;;9.24;30.73;101410.63;105436;1251;66886;-65
2023/12/05 02:28:10;;;;;;;10.80;4.30;;;;;;;9.16;30.77;101412.88;105461;1251;61851;-67
2023/12/05 02:30:38;;;;;;;11.80;4.60;;;;;;;9.07;30.82;101415.30;105431;1251;63805;-68
2023/12/05 02:33:06;;;;;;;11.60;3.90;;;;;;;8.98;30.85;101413.18;105461;1251;60570;-68
2023/12/05 02:35:34;;;;;;;9.90;3.50;;;;;;;8.91;30.90;101416.55;106157;1251;60326;-69
2023/12/05 02:38:21;;;;;;;11.10;4.00;;;;;;;8.85;30.88;101415.84;105525;1251;65475;-68
2023/12/05 02:41:18;;;;;;;11.60;3.80;;;;;;;8.80;30.95;101416.29;105752;1251;70363;-61
2023/12/05 02:43:48;;;;;;;12.40;5.10;;;;;;;8.78;30.96;101420.11;105481;1251;64318;-60
2023/12/05 02:46:17;;;;;;;10.60;2.90;;;;;;;8.73;31.04;101420.73;105485;1251;60524;-60
2023/12/05 02:48:44;;;;;;;12.70;5.30;;;;;;;8.67;31.00;101419.44;105850;1253;60400;-61
2023/12/05 02:51:12;;;;;;;12.40;4.10;;;;;;;8.65;31.11;101422.04;106750;1251;64898;-62
2023/12/05 02:53:40;;;;;;;9.30;4.10;;;;;;;8.61;31.19;101422.59;105373;1251;61793;-62
2023/12/05 02:56:08;;;;;;;13.00;5.70;;;;;;;8.57;31.08;101425.08;105512;1251;64943;-61
2023/12/05 02:58:36;;;;;;;15.20;4.60;;;;;;;8.51;31.18;101425.56;106792;1252;60410;-61
2023/12/05 03:01:04;;;;;;;9.80;3.80;;;;;;;8.47;31.23;101425.62;105549;1257;60543;-62
2023/12/05 03:03:32;;;;;;;12.20;4.10;;;;;;;8.46;31.33;101425.02;105404;1251;63697;-61
2023/12/05 03:06:00;;;;;;;12.00;4.80;;;;;;;8.42;31.31;101426.08;105633;1257;60512;-60
2023/12/05 03:08:28;;;;;;;9.60;5.40;;;;;;;8.38;31.51;101428.35;105469;1252;62507;-61
2023/12/05 03:10:56;;;;;;;11.90;4.90;;;;;;;8.37;31.43;101431.38;105461;1254;60609;-63
2023/12/05 03:13:33;;;;;;;12.30;3.90;;;;;;;8.37;31.49;101434.85;106159;1251;60555;-61
2023/12/05 03:16:01;;;;;;;7.80;3.60;;;;;;;8.46;31.41;101428.64;106119;1251;64884;-64
2023/12/05 03:18:29;;;;;;;9.40;3.90;;;;;;;8.58;31.35;101427.68;105472;1257;60511;-61
2023/12/05 03:20:57;;;;;;;9.20;3.20;;;;;;;8.67;31.29;101433.12;106083;1257;62486;-60
2023/12/05 03:23:25;;;;;;;11.30;3.60;;;;;;;8.76;31.05;101439.98;106080;1260;60578;-62
2023/12/05 03:25:53;;;;;;;11.80;4.60;;;;;;;8.86;31.11;101439.40;105502;1251;60326;-63
2023/12/05 03:28:20;;;;;;;11.00;3.90;;;;;;;8.95;30.98;101437.49;105516;1252;65010;-64
2023/12/05 03:30:48;;;;;;;12.30;5.40;;;;;;;9.02;30.90;101434.69;105479;1256;60200;-66
2023/12/05 03:33:16;;;;;;;11.50;4.10;;;;;;;9.04;30.89;101434.04;106675;1251;64199;-65
2023/12/05 03:35:44;;;;;;;11.30;4.70;;;;;;;9.04;30.84;101434.73;105984;1251;60578;-60
2023/12/05 03:38:11;;;;;;;14.50;4.30;;;;;;;9.01;30.71;101438.75;105918;1256;60436;-61
2023/12/05 03:40:39;;;;;;;9.60;5.10;;;;;;;8.95;30.84;101443.10;105437;1256;65009;-61
2023/12/05 03:43:07;;;;;;;11.10;5.00;;;;;;;8.87;30.67;101449.67;105386;1256;60448;-61
2023/12/05 03:45:35;;;;;;;14.10;5.10;;;;;;;8.80;30.73;101449.73;105786;1254;63737;-59
2023/12/05 03:48:02;;;;;;;12.50;6.40;;;;;;;8.65;30.83;101450.52;105409;1251;60597;-62
2023/12/05 03:50:30;;;;;;;11.70;4.30;;;;;;;8.58;30.84;101452.68;106244;1254;60421;-61
2023/12/05 03:52:58;;;;;;;15.00;6.00;;;;;;;8.50;31.03;101457.97;105391;1251;63698;-62
2023/12/05 03:55:25;;;;;;;13.20;4.90;;;;;;;8.45;31.16;101463.52;105446;1251;61387;-62
2023/12/05 03:57:53;;;;;;;16.40;5.70;;;;;;;8.38;31.18;101466.31;105519;1251;62606;-62
2023/12/05 04:00:21;;;;;;;12.60;5.20;;;;;;;8.32;31.12;101465.20;106297;1251;60303;-64
2023/12/05 04:02:49;;;;;;;14.20;5.60;;;;;;;8.28;31.19;101464.41;105888;1251;60462;-62
2023/12/05 04:05:17;;;;;;;16.00;6.10;;;;;;;8.23;31.27;101458.17;106373;1257;65793;-62
2023/12/05 04:07:45;;;;;;;9.40;4.10;;;;;;;8.21;31.29;101454.24;105976;1252;61585;-63
2023/12/05 04:10:13;;;;;;;8.90;3.90;;;;;;;8.18;31.23;101447.92;106781;1250;63762;-64
2023/12/05 04:12:40;;;;;;;12.60;5.10;;;;;;;8.14;31.39;101440.66;106333;1256;60424;-63
2023/12/05 04:15:08;;;;;;;12.80;4.30;;;;;;;8.12;31.39;101436.77;105385;1250;60528;-63
2023/12/05 04:17:36;;;;;;;13.50;4.00;;;;;;;8.19;31.30;101427.24;106982;1251;63724;-62
2023/12/05 04:20:07;;;;;;;11.50;3.90;;;;;;;8.32;31.18;101427.25;106414;1251;60357;-63
2023/12/05 04:22:34;;;;;;;11.90;3.20;;;;;;;8.46;31.08;101427.23;108600;1252;62895;-64
2023/12/05 04:25:03;;;;;;;10.90;3.90;;;;;;;8.57;31.14;101429.65;105452;1256;60546;-63
2023/12/05 04:27:31;;;;;;;11.80;3.80;;;;;;;8.68;31.01;101430.98;105893;1256;60487;-64
2023/12/05 04:29:59;;;;;;;12.80;5.10;;;;;;;8.73;31.00;101428.77;105567;1251;63788;-62
2023/12/05 04:32:27;;;;;;;10.50;4.40;;;;;;;8.75;30.87;101432.15;105453;1257;60655;-61
2023/12/05 04:34:55;;;;;;;9.30;3.40;;;;;;;8.74;30.82;101432.89;105514;1256;62448;-61
2023/12/05 04:37:24;;;;;;;10.40;3.50;;;;;;;8.72;30.74;101433.86;105713;1251;60507;-61
2023/12/05 04:39:55;;;;;;;11.70;3.80;;;;;;;8.69;30.68;101436.46;106254;1252;60393;-62
2023/12/05 04:42:26;;;;;;;15.00;4.50;;;;;;;8.63;30.61;101438.91;106220;1251;65031;-64
2023/12/05 04:44:55;;;;;;;12.10;5.40;;;;;;;8.55;30.62;101438.48;106245;1252;60579;-61
2023/12/05 04:47:25;;;;;;;12.90;4.90;;;;;;;8.47;30.71;101440.69;105449;1257;65099;-62
2023/12/05 04:49:54;;;;;;;43.50;18.20;;;;;;;8.42;30.76;101442.84;105595;1251;60678;-48
2023/12/05 04:52:22;;;;;;;31.60;15.70;;;;;;;8.44;30.86;101443.77;105726;1251;60522;-55
2023/12/05 04:54:52;;;;;;;80.00;32.60;;;;;;;8.47;30.82;101439.96;105902;1250;66264;-69
2023/12/05 04:57:20;;;;;;;96.00;43.70;;;;;;;8.50;30.67;101441.57;105478;1250;61925;-65
2023/12/05 04:59:48;;;;;;;63.40;29.10;;;;;;;8.52;30.72;101442.70;105359;1256;62488;-60
2023/12/05 05:02:16;;;;;;;31.50;14.10;;;;;;;8.47;30.72;101443.98;105374;1257;60558;-59
2023/12/05 05:04:43;;;;;;;18.60;8.40;;;;;;;8.38;30.77;101439.54;105241;1251;60456;-58
2023/12/05 05:07:11;;;;;;;21.70;9.00;;;;;;;8.34;30.82;101435.19;105910;1251;65075;-60
2023/12/05 05:09:40;;;;;;;62.70;24.00;;;;;;;8.33;30.79;101443.81;105327;1256;60414;-59
2023/12/05 05:12:12;;;;;;;28.70;13.60;;;;;;;8.34;30.89;101450.10;106277;1251;65940;-64
2023/12/05 05:14:40;;;;;;;15.90;6.50;;;;;;;8.31;30.99;101445.53;105281;1250;61903;-63
2023/12/05 05:17:08;;;;;;;15.40;5.80;;;;;;;8.33;30.93;101444.21;106832;1250;60331;-62
2023/12/05 05:19:36;;;;;;;16.40;5.80;;;;;;;8.33;30.95;101445.75;105504;1251;63610;-61
2023/12/05 05:22:04;;;;;;;14.70;5.90;;;;;;;8.35;30.98;101451.60;106774;1257;60641;-62
2023/12/05 05:24:32;;;;;;;17.50;6.30;;;;;;;8.35;31.02;101461.05;105512;1251;64137;-62
2023/12/05 05:27:00;;;;;;;13.50;5.30;;;;;;;8.33;31.06;101459.36;107793;1251;60529;-62
2023/12/05 05:29:29;;;;;;;15.40;5.60;;;;;;;8.28;31.09;101463.84;105272;1250;60609;-63
2023/12/05 05:31:56;;;;;;;11.00;4.90;;;;;;;8.23;31.06;101463.45;105205;1251;63625;-62
2023/12/05 05:34:24;;;;;;;10.30;5.00;;;;;;;8.27;31.13;101462.17;105395;1251;60512;-63
2023/12/05 05:36:52;;;;;;;14.30;5.30;;;;;;;8.38;31.03;101466.64;105101;1252;62435;-63
2023/12/05 05:39:20;;;;;;;15.40;5.40;;;;;;;8.46;30.85;101467.13;105054;1254;60548;-62
2023/12/05 05:41:48;;;;;;;14.60;5.30;;;;;;;8.55;30.89;101473.98;107248;1255;60434;-69
2023/12/05 05:44:16;;;;;;;13.50;5.40;;;;;;;8.65;30.95;101475.39;105588;1251;63669;-60
2023/12/05 05:46:44;;;;;;;12.90;5.30;;;;;;;8.72;30.83;101474.14;105347;1256;61583;-72
2023/12/05 05:49:19;;;;;;;12.30;5.10;;;;;;;8.84;30.80;101475.05;107926;1251;62435;-71
2023/12/05 05:52:06;;;;;;;13.30;5.50;;;;;;;8.91;30.60;101481.82;109353;1251;58200;-69
2023/12/05 05:54:33;;;;;;;136.40;52.00;;;;;;;8.95;30.41;101485.11;106048;1254;61393;-66
2023/12/05 05:57:01;;;;;;;361.40;138.70;;;;;;;9.02;30.37;101487.35;105275;1251;64928;-71
2023/12/05 05:59:29;;;;;;;400.70;134.70;;;;;;;9.14;30.17;101492.63;105506;1257;60613;-63
2023/12/05 06:01:57;;;;;;;390.30;145.30;;;;;;;9.12;30.08;101497.30;105291;1254;62548;-59
2023/12/05 06:04:25;;;;;;;255.80;94.30;;;;;;;8.99;30.19;101498.71;105144;1251;60382;-63
2023/12/05 06:06:53;;;;;;;150.90;58.40;;;;;;;8.82;30.21;101500.17;105428;1251;60485;-62
2023/12/05 06:09:21;;;;;;;129.50;48.60;;;;;;;8.65;30.40;101504.91;105637;1251;65569;-63
2023/12/05 06:11:49;;;;;;;50.30;25.40;;;;;;;8.55;30.66;101513.52;105520;1251;61302;-62
2023/12/05 06:14:16;;;;;;;26.60;12.50;;;;;;;8.45;30.72;101511.77;105548;1251;63727;-60
2023/12/05 06:16:44;;;;;;;17.90;8.20;;;;;;;8.34;30.82;101512.84;105559;1251;60673;-62
2023/12/05 06:19:11;;;;;;;13.40;6.00;;;;;;;8.28;30.94;101510.02;105897;1255;60453;-62
2023/12/05 06:21:39;;;;;;;13.90;6.50;;;;;;;8.25;31.10;101519.43;105464;1256;64972;-63
2023/12/05 06:24:08;;;;;;;14.20;4.90;;;;;;;8.26;31.10;101522.33;105547;1253;60526;-63
2023/12/05 06:26:35;;;;;;;18.70;7.20;;;;;;;8.28;31.15;101529.05;106962;1254;64231;-64
2023/12/05 06:29:04;;;;;;;13.60;5.00;;;;;;;8.23;31.17;101533.37;105580;1257;60684;-63
2023/12/05 06:31:32;;;;;;;12.60;5.80;;;;;;;8.19;31.05;101536.33;108570;1252;60488;-64
2023/12/05 06:34:00;;;;;;;12.00;5.20;;;;;;;8.19;31.26;101536.31;105501;1255;65363;-63
2023/12/05 06:36:28;;;;;;;12.00;6.10;;;;;;;8.21;31.35;101535.55;107118;1255;60549;-63
2023/12/05 06:38:56;;;;;;;13.60;6.30;;;;;;;8.21;31.33;101535.02;105422;1252;62441;-62
2023/12/05 06:41:24;;;;;;;39.20;15.00;;;;;;;8.23;31.38;101534.57;106243;1251;60525;-61
2023/12/05 06:43:52;;;;;;;37.10;16.10;;;;;;;8.27;31.36;101533.50;105738;1251;60525;-60
2023/12/05 06:46:20;;;;;;;24.10;10.30;;;;;;;8.33;31.25;101534.37;105562;1251;65444;-60
2023/12/05 06:48:48;;;;;;;17.90;8.10;;;;;;;8.41;31.26;101528.77;106492;1250;61429;-62
2023/12/05 06:51:17;;;;;;;18.50;7.90;;;;;;;8.44;31.24;101527.05;105476;1257;64134;-62
2023/12/05 06:53:48;;;;;;;16.60;8.10;;;;;;;8.46;31.37;101523.95;105446;1256;60471;-63
2023/12/05 06:56:18;;;;;;;17.30;7.00;;;;;;;8.50;31.40;101523.05;105495;1253;60545;-62
2023/12/05 06:58:46;;;;;;;19.60;6.90;;;;;;;8.55;31.24;101522.59;106676;1256;65217;-61
2023/12/05 07:01:13;;;;;;;19.50;8.20;;;;;;;8.63;31.18;101526.92;105512;1257;60437;-63
2023/12/05 07:03:41;;;;;;;16.50;7.90;;;;;;;8.66;31.16;101525.88;105450;1256;62538;-65
2023/12/05 07:06:19;;;;;;;19.80;8.50;;;;;;;8.75;31.27;101526.45;105452;1251;60444;-65
2023/12/05 07:08:47;;;;;;;15.50;6.90;;;;;;;8.81;31.26;101530.86;105647;1257;60703;-67
2023/12/05 07:11:15;;;;;;;11.00;4.30;;;;;;;8.91;31.16;101530.64;105676;1251;63875;-68
2023/12/05 07:13:44;;;;;;;14.80;6.50;;;;;;;9.05;31.02;101534.98;105356;1251;61944;-65
2023/12/05 07:16:12;;;;;;;13.50;4.50;;;;;;;9.18;30.89;101533.04;105509;1257;63890;-64
2023/12/05 07:18:40;;;;;;;13.50;4.90;;;;;;;9.28;30.85;101528.10;105369;1251;60549;-64
2023/12/05 07:21:08;;;;;;;14.20;4.80;;;;;;;9.37;30.76;101523.05;105321;1252;59287;-64
2023/12/05 07:23:36;;;;;;;18.50;6.60;;;;;;;9.48;30.60;101523.80;106437;1251;63682;-65
2023/12/05 07:26:06;;;;;;;14.20;5.10;;;;;;;9.58;30.56;101531.64;106113;1253;60457;-67
2023/12/05 07:28:34;;;;;;;15.70;5.90;;;;;;;9.62;30.37;101544.20;106181;1256;72678;-67
2023/12/05 07:31:02;;;;;;;16.00;6.30;;;;;;;9.60;30.35;101541.84;105544;1256;60498;-63
2023/12/05 07:33:29;;;;;;;18.90;7.30;;;;;;;9.62;30.42;101544.55;105415;1251;60384;-66
2023/12/05 07:35:57;;;;;;;19.30;6.60;;;;;;;9.65;30.39;101546.80;105445;1250;63646;-63
2023/12/05 07:38:25;;;;;;;15.20;7.20;;;;;;;9.68;30.46;101547.52;105479;1251;64196;-65
2023/12/05 07:40:53;;;;;;;14.00;5.10;;;;;;;9.72;30.48;101547.30;105454;1251;65850;-60
2023/12/05 07:43:21;;;;;;;18.50;7.90;;;;;;;9.74;30.51;101548.61;105510;1251;60637;-62
2023/12/05 07:45:49;;;;;;;19.80;9.10;;;;;;;9.75;30.31;101546.63;105179;1257;60329;-63
2023/12/05 07:48:17;;;;;;;17.90;7.80;;;;;;;9.76;30.28;101545.83;105240;1251;63715;-63
2023/12/05 07:50:45;;;;;;;24.60;11.10;;;;;;;9.76;30.25;101548.15;105755;1256;60382;-63
2023/12/05 07:53:12;;;;;;;27.10;12.20;;;;;;;9.75;30.39;101544.52;105466;1252;63866;-61
2023/12/05 07:55:40;;;;;;;28.30;11.80;;;;;;;9.76;30.36;101548.31;105459;1255;60561;-61
2023/12/05 07:58:07;;;;;;;38.20;16.30;;;;;;;9.73;30.38;101545.33;105432;1251;59442;-62
2023/12/05 08:00:38;;;;;;;49.50;22.00;;;;;;;9.72;30.48;101541.89;105415;1257;67078;-60
2023/12/05 08:03:06;;;;;;;52.90;23.30;;;;;;;9.77;30.43;101537.90;105504;1251;61875;-60
2023/12/05 08:05:34;;;;;;;31.90;14.40;;;;;;;9.86;30.51;101534.43;105425;1257;62446;-60
2023/12/05 08:08:02;;;;;;;43.80;17.30;;;;;;;9.92;30.46;101533.86;102748;1256;3700514;-60
2023/12/05 08:13:36;;;;;;;24.60;9.80;;;;;;;8.04;33.52;101532.02;102119;1295;600361;-60
2023/12/05 08:16:04;;;;;;;51.80;19.60;;;;;;;9.63;31.02;101529.74;104460;1269;59376;-60
2023/12/05 08:18:32;;;;;;;51.70;19.40;;;;;;;9.93;30.80;101522.98;105749;1273;61081;-60
2023/12/05 08:21:00;;;;;;;36.70;15.40;;;;;;;10.05;30.62;101521.20;104019;1266;62016;-60
2023/12/05 08:23:28;;;;;;;24.20;10.40;;;;;;;10.16;30.56;101521.92;108397;1266;63441;-63
2023/12/05 08:25:56;;;;;;;22.50;9.40;;;;;;;10.27;30.49;101531.26;105190;1266;3585154;-65
2023/12/05 08:28:25;;;;;;;28.40;15.50;;;;;;;10.35;30.50;101531.67;106346;1263;59289;-62
2023/12/05 08:30:52;;;;;;;68.70;31.70;;;;;;;10.40;30.43;101533.17;104408;1264;59321;-63
2023/12/05 08:33:20;;;;;;;64.40;31.90;;;;;;;10.49;30.36;101534.19;104537;1267;63441;-65
2023/12/05 08:35:48;;;;;;;41.50;19.80;;;;;;;10.58;30.37;101531.88;104957;1267;60260;-61
2023/12/05 08:38:16;;;;;;;23.20;10.20;;;;;;;10.64;30.26;101528.38;104649;1267;62414;-64
2023/12/05 08:40:43;;;;;;;26.10;11.30;;;;;;;10.67;30.33;101530.42;104620;1266;59809;-64
2023/12/05 08:43:11;;;;;;;23.30;10.60;;;;;;;10.73;30.31;101531.64;105132;1256;60912;-65
2023/12/05 08:45:38;;;;;;;20.70;9.30;;;;;;;10.81;30.31;101524.67;105165;1258;64080;-62
2023/12/05 08:48:06;;;;;;;19.90;9.90;;;;;;;10.88;30.30;101512.96;105193;1260;60126;-62
2023/12/05 08:50:36;;;;;;;22.20;8.90;;;;;;;10.97;30.25;101514.52;104979;1257;62481;-62
2023/12/05 08:53:04;;;;;;;17.10;7.00;;;;;;;11.10;30.09;101515.09;105137;1257;59689;-62
2023/12/05 08:55:31;;;;;;;18.10;6.40;;;;;;;11.28;29.95;101513.77;105037;1260;59554;-62
2023/12/05 08:57:59;;;;;;;16.30;5.60;;;;;;;11.43;29.91;101504.56;104996;1257;73520;-62
2023/12/05 09:00:27;;;;;;;13.30;5.80;;;;;;;11.55;29.75;101499.34;104990;1260;61335;-63
2023/12/05 09:02:55;;;;;;;12.80;5.00;;;;;;;11.68;29.61;101491.45;104980;1257;62915;-62
2023/12/05 09:05:24;;;;;;;9.80;4.00;;;;;;;11.86;29.54;101492.19;105165;1257;59758;-63
2023/12/05 09:07:51;;;;;;;14.80;6.90;;;;;;;11.97;29.30;101491.80;106083;1256;59676;-62
2023/12/05 09:10:19;;;;;;;22.40;9.60;;;;;;;12.00;29.18;101492.02;104970;1256;63108;-62
2023/12/05 09:12:47;;;;;;;18.00;8.10;;;;;;;12.01;29.03;101488.90;104725;1258;61532;-61
2023/12/05 09:15:15;;;;;;;14.30;6.60;;;;;;;12.04;29.19;101487.64;108882;1255;62536;-64
2023/12/05 09:17:44;;;;;;;14.20;6.80;;;;;;;12.12;29.11;101486.75;107130;1256;59828;-62
2023/12/05 09:20:12;;;;;;;14.90;6.60;;;;;;;12.14;28.98;101481.70;105511;1257;60404;-61
2023/12/05 09:22:40;;;;;;;18.60;8.50;;;;;;;12.19;28.96;101471.34;105188;1256;62871;-59
2023/12/05 09:25:08;;;;;;;18.20;8.10;;;;;;;12.29;28.97;101468.56;105070;1256;61353;-62
2023/12/05 09:27:36;;;;;;;20.40;10.20;;;;;;;12.31;28.86;101470.35;105682;1257;62456;-62
2023/12/05 09:30:05;;;;;;;18.70;9.80;;;;;;;12.34;29.02;101472.55;105809;1260;59756;-63
2023/12/05 09:32:33;;;;;;;18.10;8.10;;;;;;;12.43;29.06;101466.84;105699;1257;59714;-59
2023/12/05 09:35:02;;;;;;;15.30;7.80;;;;;;;12.46;29.07;101460.80;104877;1260;64152;-60
2023/12/05 09:37:30;;;;;;;19.40;8.30;;;;;;;12.51;28.99;101459.95;105819;1257;60226;-62
2023/12/05 09:39:58;;;;;;;16.90;7.00;;;;;;;12.51;28.93;101459.42;105183;1257;63693;-63
2023/12/05 09:42:26;;;;;;;16.50;7.30;;;;;;;12.51;28.95;101460.66;104972;1256;59653;-56
2023/12/05 09:44:54;;;;;;;17.90;8.10;;;;;;;12.51;28.87;101456.61;104834;1262;60041;-59
2023/12/05 09:47:22;;;;;;;17.60;8.10;;;;;;;12.52;28.84;101460.78;105834;1257;64170;-60
2023/12/05 09:49:49;;;;;;;17.30;7.80;;;;;;;12.54;28.91;101459.36;105175;1258;60628;-58
2023/12/05 09:52:18;;;;;;;19.30;10.30;;;;;;;12.55;28.90;101459.16;105916;1256;63837;-58
2023/12/05 09:54:46;;;;;;;18.20;9.60;;;;;;;12.54;28.96;101460.64;104863;1257;59711;-60
2023/12/05 09:57:14;;;;;;;22.50;9.70;;;;;;;12.55;29.03;101463.75;104842;1260;59665;-60
2023/12/05 09:59:41;;;;;;;20.30;10.10;;;;;;;12.56;29.18;101463.27;104874;1260;64344;-60
2023/12/05 10:02:10;;;;;;;20.60;9.60;;;;;;;12.57;29.22;101459.32;104682;1260;63468;-60
2023/12/05 10:04:43;;;;;;;30.60;14.30;;;;;;;12.60;29.27;101460.86;104705;1263;62449;-56
2023/12/05 10:07:12;;;;;;;29.20;14.30;;;;;;;12.68;29.29;101458.00;108839;1256;61582;-64
2023/12/05 10:09:43;;;;;;;23.30;11.10;;;;;;;12.74;29.28;101449.83;108792;1257;58797;-63
2023/12/05 10:12:11;;;;;;;23.30;9.60;;;;;;;12.79;29.23;101452.29;108767;1256;75283;-62
2023/12/05 10:14:40;;;;;;;24.00;11.10;;;;;;;12.83;29.18;101448.88;106327;1256;60394;-59
2023/12/05 10:17:09;;;;;;;19.70;9.20;;;;;;;12.88;29.25;101452.38;106354;1257;63906;-61
2023/12/05 10:19:39;;;;;;;13.60;7.70;;;;;;;12.97;29.14;101455.41;109000;1255;57659;-61
2023/12/05 10:22:07;;;;;;;18.50;10.20;;;;;;;13.07;29.15;101456.99;108906;1256;57506;-62
2023/12/05 10:24:43;;;;;;;16.70;8.50;;;;;;;13.11;29.11;101462.33;108858;1256;66037;-56
2023/12/05 10:27:11;;;;;;;19.60;9.20;;;;;;;13.13;29.03;101460.95;108827;1261;63377;-60
2023/12/05 10:29:40;;;;;;;17.70;7.80;;;;;;;13.19;29.11;101455.54;108912;1256;72901;-62
2023/12/05 10:32:10;;;;;;;20.10;8.50;;;;;;;13.28;29.10;101454.02;107933;1256;59727;-59
2023/12/05 10:34:46;;;;;;;21.10;9.10;;;;;;;13.29;29.12;101452.86;105509;1256;59641;-64
2023/12/05 10:37:22;;;;;;;19.00;9.20;;;;;;;13.32;28.88;101450.41;108544;1256;64522;-62
2023/12/05 10:39:53;;;;;;;18.70;8.30;;;;;;;13.36;28.84;101447.45;104931;1258;63228;-62
2023/12/05 10:42:25;;;;;;;15.40;7.70;;;;;;;13.39;28.86;101450.94;105049;1260;62516;-64
2023/12/05 10:44:53;;;;;;;19.10;7.40;;;;;;;13.45;28.81;101449.84;105192;1256;59652;-61
2023/12/05 10:47:22;;;;;;;15.40;6.40;;;;;;;13.50;28.66;101445.52;104982;1260;61252;-63
2023/12/05 10:49:49;;;;;;;14.70;7.10;;;;;;;13.42;28.65;101445.61;105930;1262;75308;-62
2023/12/05 10:52:17;;;;;;;21.70;10.60;;;;;;;13.36;28.71;101445.66;105112;1260;60607;-61
2023/12/05 10:54:45;;;;;;;17.10;8.90;;;;;;;13.39;28.65;101446.39;105057;1257;62663;-63
2023/12/05 10:57:12;;;;;;;18.00;10.00;;;;;;;13.41;28.50;101448.34;105121;1258;59661;-57
2023/12/05 10:59:40;;;;;;;19.60;9.90;;;;;;;13.42;28.49;101447.20;104984;1259;59788;-62
2023/12/05 11:02:13;;;;;;;21.50;11.20;;;;;;;13.41;28.50;101449.19;104995;1253;63262;-64
2023/12/05 11:04:41;;;;;;;21.90;9.70;;;;;;;13.36;28.41;101444.13;104897;1261;60229;-61
2023/12/05 11:07:09;;;;;;;17.00;8.70;;;;;;;13.36;28.53;101444.96;109068;1256;65990;-63
2023/12/05 11:09:41;;;;;;;22.90;10.30;;;;;;;13.41;28.42;101440.05;109123;1253;57553;-65
2023/12/05 11:12:09;;;;;;;20.10;9.20;;;;;;;13.47;28.52;101429.37;106645;1254;60384;-63
2023/12/05 11:14:40;;;;;;;22.10;10.00;;;;;;;13.54;28.52;101423.02;105003;1254;64113;-64
2023/12/05 11:17:11;;;;;;;25.30;11.90;;;;;;;13.64;28.55;101415.95;105761;1253;61468;-64
2023/12/05 11:19:57;;;;;;;18.00;9.10;;;;;;;13.68;28.57;101411.58;105914;1255;63740;-63
2023/12/05 11:22:30;;;;;;;30.20;9.90;;;;;;;13.72;28.43;101407.23;106173;1254;59714;-63
2023/12/05 11:25:16;;;;;;;20.00;9.20;;;;;;;13.73;28.40;101396.73;105167;1254;60015;-65